Time;durP1;ratioP1;P1;durP2;ratioP2;P2;SDS_P1;SDS_P2;PMS_P1;PMS_P2;Temp;Humidity;BMP_temperature;BMP_pressure;BME280_temperature;BME280_humidity;BME280_pressure;Samples;Min_cycle;Max_cycle;Signal;HPM_P1;HPM_P2
2022/07/17 00:00:26;;;;;;;4.55;2.90;;;26.20;78.00;;;;;;5092008;28;20028;-78
2022/07/17 00:02:52;;;;;;;5.68;2.03;;;26.10;78.60;;;;;;5096229;28;20024;-78
2022/07/17 00:05:19;;;;;;;4.55;2.60;;;25.90;78.50;;;;;;5087183;28;20111;-78
2022/07/17 00:07:47;;;;;;;5.72;2.50;;;25.80;77.90;;;;;;5112686;28;20493;-78
2022/07/17 00:10:12;;;;;;;8.00;2.90;;;25.70;78.40;;;;;;5094516;28;20028;-78
2022/07/17 00:12:38;;;;;;;7.93;3.58;;;25.70;78.60;;;;;;5086275;28;20017;-78
2022/07/17 00:15:04;;;;;;;4.15;2.47;;;25.60;79.60;;;;;;5087600;28;20477;-79
2022/07/17 00:17:30;;;;;;;5.28;2.80;;;25.60;80.00;;;;;;5089280;28;20031;-78
2022/07/17 00:19:56;;;;;;;6.97;2.33;;;25.50;79.00;;;;;;5088541;28;20020;-78
2022/07/17 00:22:22;;;;;;;3.90;2.60;;;25.50;79.70;;;;;;5092890;28;20024;-77
2022/07/17 00:24:48;;;;;;;6.45;2.50;;;25.50;79.70;;;;;;5091739;28;20032;-78
2022/07/17 00:27:13;;;;;;;6.45;2.17;;;25.50;79.40;;;;;;5100206;28;20040;-78
2022/07/17 00:29:39;;;;;;;6.28;2.53;;;25.40;79.70;;;;;;5098612;28;20020;-78
2022/07/17 00:32:05;;;;;;;6.25;2.63;;;25.40;80.00;;;;;;5084597;28;20059;-78
2022/07/17 00:34:32;;;;;;;4.95;2.38;;;25.30;83.60;;;;;;5095620;28;20016;-77
2022/07/17 00:36:58;;;;;;;4.68;2.83;;;25.20;86.00;;;;;;5096939;28;20042;-77
2022/07/17 00:39:24;;;;;;;5.50;2.63;;;25.00;87.50;;;;;;5097236;28;20024;-77
2022/07/17 00:41:50;;;;;;;3.95;2.20;;;25.00;87.10;;;;;;5099866;28;20028;-77
2022/07/17 00:44:16;;;;;;;5.40;2.85;;;24.80;88.70;;;;;;5085833;28;20040;-77
2022/07/17 00:46:42;;;;;;;3.90;2.47;;;24.60;89.70;;;;;;5080953;28;20028;-78
2022/07/17 00:49:08;;;;;;;5.57;2.65;;;24.60;90.00;;;;;;5083872;28;20033;-77
2022/07/17 00:51:34;;;;;;;4.55;2.35;;;24.50;90.00;;;;;;5084455;28;20032;-78
2022/07/17 00:54:01;;;;;;;3.75;2.40;;;24.40;90.00;;;;;;5113490;28;20070;-78
2022/07/17 00:56:28;;;;;;;3.60;2.13;;;24.30;90.30;;;;;;5089782;28;20028;-78
2022/07/17 00:58:55;;;;;;;5.63;2.45;;;24.20;90.70;;;;;;5093900;28;20028;-78
2022/07/17 01:01:21;;;;;;;2.92;2.10;;;24.10;90.30;;;;;;5094086;28;20449;-78
2022/07/17 01:03:47;;;;;;;4.47;2.40;;;24.00;90.90;;;;;;5089122;28;20071;-78
2022/07/17 01:06:13;;;;;;;5.43;2.53;;;23.90;90.80;;;;;;5095635;28;20050;-78
2022/07/17 01:08:39;;;;;;;4.38;2.85;;;23.80;92.20;;;;;;5093560;28;20477;-78
2022/07/17 01:11:06;;;;;;;3.75;2.40;;;23.60;93.10;;;;;;5097698;28;20028;-77
2022/07/17 01:13:31;;;;;;;2.97;2.20;;;23.50;93.10;;;;;;5097005;28;20020;-77
2022/07/17 01:15:57;;;;;;;4.53;2.25;;;23.40;93.00;;;;;;5089122;28;20029;-78
2022/07/17 01:18:23;;;;;;;6.93;2.88;;;23.30;93.70;;;;;;5081595;28;20392;-78
2022/07/17 01:20:50;;;;;;;9.65;2.83;;;23.20;93.80;;;;;;5080424;28;20091;-78
2022/07/17 01:23:18;;;;;;;7.65;3.55;;;23.20;93.70;;;;;;5082623;28;20557;-78
2022/07/17 01:25:45;;;;;;;5.47;3.55;;;23.10;93.70;;;;;;5083274;28;20024;-77
2022/07/17 01:28:12;;;;;;;5.32;2.88;;;23.00;94.10;;;;;;5086365;28;20077;-77
2022/07/17 01:30:48;;;;;;;5.43;2.70;;;23.00;93.80;;;;;;5087912;28;20028;-77
2022/07/17 01:33:14;;;;;;;6.13;2.72;;;23.00;94.40;;;;;;5095027;28;20067;-78
2022/07/17 01:35:40;;;;;;;4.32;3.10;;;22.90;94.60;;;;;;5092495;28;20024;-77
2022/07/17 01:38:06;;;;;;;5.75;3.78;;;22.80;94.90;;;;;;5091709;28;20031;-77
2022/07/17 01:40:31;;;;;;;4.30;3.50;;;22.70;94.70;;;;;;5095778;28;20027;-78
2022/07/17 01:42:57;;;;;;;3.20;2.30;;;22.70;95.00;;;;;;5094341;28;20027;-77
2022/07/17 01:45:23;;;;;;;9.93;3.13;;;22.70;95.20;;;;;;5097564;28;20036;-77
2022/07/17 01:47:49;;;;;;;4.45;3.28;;;22.60;95.40;;;;;;5094717;28;20023;-77
2022/07/17 01:50:16;;;;;;;5.32;3.22;;;22.60;95.30;;;;;;5087619;28;20066;-77
2022/07/17 01:52:43;;;;;;;6.57;3.22;;;22.60;95.10;;;;;;5084492;28;20119;-77
2022/07/17 01:55:11;;;;;;;8.65;5.05;;;22.60;95.00;;;;;;5079887;28;20016;-77
2022/07/17 01:57:37;;;;;;;7.03;4.68;;;22.60;95.20;;;;;;5085968;28;20016;-78
2022/07/17 02:00:09;;;;;;;8.35;4.15;;;22.60;95.30;;;;;;5081564;28;20131;-77
2022/07/17 02:02:35;;;;;;;6.22;2.90;;;22.60;95.40;;;;;;5088413;28;20027;-77
2022/07/17 02:05:01;;;;;;;5.72;3.78;;;22.50;95.40;;;;;;5085840;28;20058;-77
2022/07/17 02:07:27;;;;;;;7.15;3.10;;;22.50;95.40;;;;;;5090025;28;20028;-77
2022/07/17 02:09:53;;;;;;;5.07;2.95;;;22.50;95.50;;;;;;5089624;28;20021;-77
2022/07/17 02:12:19;;;;;;;9.13;3.10;;;22.40;95.50;;;;;;5083015;28;20169;-78
2022/07/17 02:14:45;;;;;;;5.63;2.85;;;22.40;95.80;;;;;;5092143;28;20099;-78
2022/07/17 02:17:11;;;;;;;7.43;3.15;;;22.40;96.20;;;;;;5095867;28;20020;-77
2022/07/17 02:19:37;;;;;;;5.93;2.90;;;22.30;96.20;;;;;;5095754;28;20052;-77
2022/07/17 02:22:03;;;;;;;6.93;2.80;;;22.20;96.50;;;;;;5090571;28;20031;-78
2022/07/17 02:24:29;;;;;;;6.80;3.42;;;22.20;96.60;;;;;;5077389;28;20058;-77
2022/07/17 02:26:55;;;;;;;5.03;2.85;;;22.10;97.00;;;;;;5080208;28;20481;-77
2022/07/17 02:29:21;;;;;;;4.57;3.17;;;22.10;97.10;;;;;;5079442;28;20020;-77
2022/07/17 02:31:46;;;;;;;4.38;3.10;;;22.00;97.40;;;;;;5086285;28;20024;-78
2022/07/17 02:34:12;;;;;;;10.05;2.95;;;21.90;98.10;;;;;;5090441;28;20127;-78
2022/07/17 02:36:38;;;;;;;4.85;2.90;;;21.80;98.20;;;;;;5093381;28;20025;-77
2022/07/17 02:39:04;;;;;;;4.05;2.67;;;21.80;98.60;;;;;;5093817;28;20056;-78
2022/07/17 02:41:30;;;;;;;6.22;2.70;;;21.70;99.10;;;;;;5095719;28;20585;-77
2022/07/17 02:43:55;;;;;;;5.35;3.17;;;21.60;99.30;;;;;;5095789;28;20491;-77
2022/07/17 02:46:21;;;;;;;6.50;2.90;;;21.60;99.50;;;;;;5078805;28;20100;-77
2022/07/17 02:48:47;;;;;;;5.60;3.67;;;21.50;99.20;;;;;;5078933;28;20024;-77
2022/07/17 02:51:13;;;;;;;7.13;3.35;;;21.40;99.60;;;;;;5081828;28;20484;-77
2022/07/17 02:53:39;;;;;;;5.18;3.25;;;21.40;99.50;;;;;;5078966;28;20075;-77
2022/07/17 02:56:05;;;;;;;5.35;3.03;;;21.40;99.80;;;;;;5085682;28;20012;-77
2022/07/17 02:58:31;;;;;;;3.90;3.30;;;21.40;99.60;;;;;;5082602;28;20393;-77
2022/07/17 03:00:57;;;;;;;5.50;3.22;;;21.30;99.80;;;;;;5089063;28;20020;-77
2022/07/17 03:03:23;;;;;;;4.88;3.10;;;21.30;99.90;;;;;;5090391;28;20112;-77
2022/07/17 03:05:48;;;;;;;3.67;2.80;;;21.20;99.70;;;;;;5091351;28;20026;-77
2022/07/17 03:08:14;;;;;;;4.80;3.05;;;21.20;99.90;;;;;;5097359;28;20035;-77
2022/07/17 03:10:40;;;;;;;5.85;3.22;;;21.20;99.90;;;;;;5097327;28;20108;-77
2022/07/17 03:13:06;;;;;;;7.10;3.33;;;21.20;99.90;;;;;;5095668;28;20055;-77
2022/07/17 03:15:32;;;;;;;5.90;3.63;;;21.20;99.90;;;;;;5095260;28;20016;-77
2022/07/17 03:17:59;;;;;;;6.95;3.42;;;21.10;99.90;;;;;;5096376;28;20107;-77
2022/07/17 03:20:25;;;;;;;6.57;3.00;;;21.00;99.90;;;;;;5096517;28;20016;-77
2022/07/17 03:22:51;;;;;;;5.32;3.22;;;21.00;99.90;;;;;;5085034;28;20029;-77
2022/07/17 03:25:16;;;;;;;6.20;3.30;;;21.00;99.90;;;;;;5079304;28;20050;-77
2022/07/17 03:27:42;;;;;;;9.65;3.35;;;20.90;99.90;;;;;;5079165;28;20055;-77
2022/07/17 03:30:08;;;;;;;5.30;3.33;;;20.90;99.90;;;;;;5081255;28;20058;-77
2022/07/17 03:32:34;;;;;;;4.38;3.10;;;20.90;99.90;;;;;;5082989;28;20040;-77
2022/07/17 03:35:01;;;;;;;3.92;3.17;;;20.80;99.90;;;;;;5096930;28;20024;-77
2022/07/17 03:37:28;;;;;;;5.78;3.00;;;20.80;99.90;;;;;;5089657;28;20046;-77
2022/07/17 03:39:54;;;;;;;5.28;3.10;;;20.80;99.90;;;;;;5096736;28;20012;-77
2022/07/17 03:42:20;;;;;;;5.90;3.30;;;20.80;99.90;;;;;;5097380;28;20034;-77
2022/07/17 03:44:45;;;;;;;5.78;3.13;;;20.80;99.90;;;;;;5098536;28;20031;-77
2022/07/17 03:47:11;;;;;;;4.80;2.95;;;20.70;99.90;;;;;;5099358;28;20123;-77
2022/07/17 03:49:38;;;;;;;3.60;3.30;;;20.70;99.90;;;;;;5083351;28;20052;-77
2022/07/17 03:52:04;;;;;;;5.57;3.35;;;20.60;99.90;;;;;;5080569;28;20052;-77
2022/07/17 03:54:30;;;;;;;6.30;3.60;;;20.60;99.90;;;;;;5084346;28;20024;-77
2022/07/17 03:56:55;;;;;;;5.03;3.35;;;20.50;99.90;;;;;;5083133;28;20024;-77
2022/07/17 03:59:22;;;;;;;4.28;3.60;;;20.60;99.90;;;;;;5089837;28;20020;-77
2022/07/17 04:01:47;;;;;;;4.38;3.63;;;20.60;99.90;;;;;;5093145;28;20111;-77
2022/07/17 04:04:13;;;;;;;8.43;3.50;;;20.50;99.90;;;;;;5093556;28;20109;-77
2022/07/17 04:06:39;;;;;;;6.05;3.55;;;20.50;99.90;;;;;;5089120;28;20491;-77
2022/07/17 04:09:05;;;;;;;8.38;3.47;;;20.50;99.90;;;;;;5094098;28;20039;-77
2022/07/17 04:11:31;;;;;;;9.73;3.70;;;20.40;99.90;;;;;;5092315;28;20028;-77
2022/07/17 04:13:57;;;;;;;7.13;4.30;;;20.40;99.90;;;;;;5094623;28;20030;-77
2022/07/17 04:16:23;;;;;;;6.65;3.45;;;20.40;99.90;;;;;;5097463;28;20024;-77
2022/07/17 04:18:49;;;;;;;4.43;3.22;;;20.30;99.90;;;;;;5097012;28;20541;-77
2022/07/17 04:21:15;;;;;;;6.95;3.30;;;20.20;99.90;;;;;;5098510;28;20042;-77
2022/07/17 04:23:41;;;;;;;5.57;3.38;;;20.30;99.90;;;;;;5082217;28;20023;-78
2022/07/17 04:26:07;;;;;;;6.50;3.78;;;20.20;99.90;;;;;;5081751;28;20048;-77
2022/07/17 04:28:33;;;;;;;5.05;3.72;;;20.20;99.90;;;;;;5086037;28;20031;-77
2022/07/17 04:31:00;;;;;;;3.88;2.95;;;20.30;99.90;;;;;;5091438;28;20025;-77
2022/07/17 04:33:26;;;;;;;13.73;4.03;;;20.30;99.90;;;;;;5093550;28;20111;-78
2022/07/17 04:35:52;;;;;;;6.03;3.72;;;20.30;99.90;;;;;;5090659;28;20070;-78
2022/07/17 04:38:18;;;;;;;8.02;3.83;;;20.20;99.90;;;;;;5095615;28;20020;-78
2022/07/17 04:40:46;;;;;;;8.75;3.53;;;20.20;99.90;;;;;;5096983;28;20095;-77
2022/07/17 04:43:12;;;;;;;5.97;3.45;;;20.10;99.90;;;;;;5100024;28;20495;-77
2022/07/17 04:45:37;;;;;;;8.20;4.43;;;20.00;99.90;;;;;;5099176;28;20100;-77
2022/07/17 04:48:03;;;;;;;4.43;3.58;;;20.00;99.90;;;;;;5092631;28;20024;-77
2022/07/17 04:50:30;;;;;;;7.68;4.18;;;20.00;99.90;;;;;;5092436;28;20052;-77
2022/07/17 04:52:56;;;;;;;5.70;4.15;;;20.00;99.90;;;;;;5082569;28;20059;-78
2022/07/17 04:55:23;;;;;;;7.80;3.65;;;20.10;99.90;;;;;;5082757;28;20032;-77
2022/07/17 04:57:48;;;;;;;4.90;3.72;;;20.00;99.90;;;;;;5086386;28;20024;-77
2022/07/17 05:00:15;;;;;;;5.88;4.10;;;20.10;99.90;;;;;;5083409;28;20039;-77
2022/07/17 05:02:41;;;;;;;5.13;3.58;;;20.10;99.90;;;;;;5091756;28;20020;-78
2022/07/17 05:05:07;;;;;;;5.25;3.88;;;20.10;99.90;;;;;;5085518;28;20027;-77
2022/07/17 05:07:33;;;;;;;7.07;3.95;;;20.20;99.90;;;;;;5093482;28;20050;-78
2022/07/17 05:09:59;;;;;;;8.30;3.85;;;20.20;99.90;;;;;;5089288;28;20484;-77
2022/07/17 05:12:25;;;;;;;4.90;3.58;;;20.20;99.90;;;;;;5095136;28;20035;-78
2022/07/17 05:14:51;;;;;;;4.25;3.53;;;20.30;99.90;;;;;;5094995;28;20020;-78
2022/07/17 05:17:17;;;;;;;6.00;3.60;;;20.30;99.90;;;;;;5097853;28;20468;-78
2022/07/17 05:19:43;;;;;;;5.03;3.42;;;20.40;99.90;;;;;;5097090;28;20106;-78
2022/07/17 05:22:09;;;;;;;4.57;3.72;;;20.40;99.90;;;;;;5093131;28;20025;-78
2022/07/17 05:24:34;;;;;;;8.02;4.05;;;20.50;99.90;;;;;;5078868;28;20107;-78
2022/07/17 05:27:01;;;;;;;7.82;3.65;;;20.50;99.90;;;;;;5082572;28;20032;-78
2022/07/17 05:29:27;;;;;;;5.47;3.75;;;20.60;99.90;;;;;;5080595;28;20028;-78
2022/07/17 05:31:52;;;;;;;8.63;4.40;;;20.70;99.90;;;;;;5087052;28;20026;-78
2022/07/17 05:34:18;;;;;;;6.63;3.47;;;20.80;99.90;;;;;;5091730;28;20051;-79
2022/07/17 05:36:45;;;;;;;6.55;3.80;;;20.90;99.90;;;;;;5095115;28;20016;-78
2022/07/17 05:39:11;;;;;;;7.60;3.90;;;20.90;99.90;;;;;;5092721;28;20020;-78
2022/07/17 05:41:38;;;;;;;5.57;3.90;;;21.00;99.90;;;;;;5097775;28;20028;-78
2022/07/17 05:44:04;;;;;;;6.13;3.65;;;21.00;99.90;;;;;;5092927;28;20020;-78
2022/07/17 05:46:30;;;;;;;6.72;4.38;;;21.10;99.90;;;;;;5092069;28;20087;-78
2022/07/17 05:48:56;;;;;;;4.70;3.92;;;21.20;99.90;;;;;;5083586;28;20040;-78
2022/07/17 05:51:21;;;;;;;5.60;4.15;;;21.30;99.90;;;;;;5088545;28;20028;-79
2022/07/17 05:53:47;;;;;;;6.75;3.92;;;21.40;99.90;;;;;;5084919;28;20052;-79
2022/07/17 05:56:13;;;;;;;5.55;4.03;;;21.40;99.90;;;;;;5098467;28;20496;-79
2022/07/17 05:58:39;;;;;;;7.47;4.35;;;21.50;99.90;;;;;;5088945;28;20012;-78
2022/07/17 06:01:05;;;;;;;4.75;3.97;;;21.60;99.90;;;;;;5095154;28;20028;-79
2022/07/17 06:03:31;;;;;;;6.90;4.70;;;21.70;99.90;;;;;;5093719;28;20429;-79
2022/07/17 06:05:56;;;;;;;7.28;3.95;;;21.80;99.90;;;;;;5095962;28;20035;-79
2022/07/17 06:08:22;;;;;;;7.43;4.65;;;21.90;99.90;;;;;;5095129;28;20110;-79
2022/07/17 06:10:48;;;;;;;6.97;3.92;;;22.00;99.90;;;;;;5084999;28;20020;-79
2022/07/17 06:13:14;;;;;;;6.80;4.43;;;22.20;99.90;;;;;;5096762;28;20030;-79
2022/07/17 06:15:40;;;;;;;6.95;5.03;;;22.20;99.90;;;;;;5083433;28;20021;-79
2022/07/17 06:18:05;;;;;;;10.50;4.95;;;22.30;99.90;;;;;;5079876;28;20035;-79
2022/07/17 06:20:31;;;;;;;6.75;4.18;;;22.40;99.90;;;;;;5084470;28;20025;-79
2022/07/17 06:22:57;;;;;;;5.40;4.53;;;22.50;99.90;;;;;;5082683;28;20107;-79
2022/07/17 06:25:23;;;;;;;7.80;5.13;;;22.60;99.90;;;;;;5089721;28;20052;-79
2022/07/17 06:27:49;;;;;;;7.75;3.63;;;22.70;99.90;;;;;;5084878;28;20095;-80
2022/07/17 06:30:16;;;;;;;6.82;4.25;;;22.90;99.90;;;;;;5092011;28;20031;-79
2022/07/17 06:32:42;;;;;;;6.72;3.58;;;23.00;99.90;;;;;;5087396;28;20116;-80
2022/07/17 06:35:09;;;;;;;4.43;4.00;;;23.10;99.90;;;;;;5083181;28;20020;-79
2022/07/17 06:37:35;;;;;;;6.10;4.03;;;23.30;99.90;;;;;;5091263;28;20107;-80
2022/07/17 06:40:02;;;;;;;5.35;3.83;;;23.30;99.90;;;;;;5095112;28;20023;-79
2022/07/17 06:42:27;;;;;;;6.63;4.38;;;23.50;99.00;;;;;;5096741;28;20024;-79
2022/07/17 06:44:53;;;;;;;11.68;5.00;;;23.60;98.80;;;;;;5091361;28;20031;-80
2022/07/17 06:47:19;;;;;;;8.48;5.05;;;23.70;99.10;;;;;;5090213;28;20047;-80
2022/07/17 06:49:45;;;;;;;5.55;4.95;;;23.80;98.40;;;;;;5083186;28;20024;-80
2022/07/17 06:52:11;;;;;;;9.15;4.70;;;23.90;97.50;;;;;;5081283;28;20040;-80
2022/07/17 06:54:37;;;;;;;6.82;4.55;;;23.90;97.80;;;;;;5087293;28;20555;-80
2022/07/17 06:57:02;;;;;;;9.63;5.00;;;24.10;97.70;;;;;;5082739;28;20021;-79
2022/07/17 06:59:28;;;;;;;5.72;4.68;;;24.20;97.50;;;;;;5091028;28;20013;-79
2022/07/17 07:01:54;;;;;;;5.90;4.25;;;24.20;96.30;;;;;;5086584;28;20023;-80
2022/07/17 07:04:21;;;;;;;9.60;4.55;;;24.40;96.70;;;;;;5093248;28;20396;-80
2022/07/17 07:06:46;;;;;;;8.10;5.13;;;24.40;96.70;;;;;;5088944;28;20492;-80
2022/07/17 07:09:12;;;;;;;7.88;5.05;;;24.60;96.40;;;;;;5095395;28;20478;-81
2022/07/17 07:11:38;;;;;;;7.10;4.95;;;24.70;96.80;;;;;;5092720;28;20024;-80
2022/07/17 07:14:05;;;;;;;8.05;5.28;;;24.80;94.80;;;;;;5096619;28;20019;-80
2022/07/17 07:16:31;;;;;;;8.55;5.30;;;24.90;95.80;;;;;;5083858;28;20028;-79
2022/07/17 07:18:57;;;;;;;7.93;5.47;;;25.00;95.30;;;;;;5076599;28;20021;-80
2022/07/17 07:21:24;;;;;;;7.18;6.18;;;25.20;94.90;;;;;;5078061;28;20152;-79
2022/07/17 07:23:50;;;;;;;8.35;5.05;;;25.20;94.80;;;;;;5081234;28;20465;-81
2022/07/17 07:26:16;;;;;;;7.22;5.60;;;25.40;95.10;;;;;;5079159;28;20020;-81
2022/07/17 07:28:42;;;;;;;6.05;4.82;;;25.50;94.20;;;;;;5083529;28;20035;-80
2022/07/17 07:31:08;;;;;;;7.97;5.50;;;25.70;94.40;;;;;;5081070;28;20075;-80
2022/07/17 07:33:34;;;;;;;10.98;5.70;;;25.90;93.40;;;;;;5088687;28;20028;-80
2022/07/17 07:36:00;;;;;;;7.88;5.25;;;26.10;93.10;;;;;;5082147;28;20016;-80
2022/07/17 07:38:26;;;;;;;7.95;5.80;;;26.30;93.00;;;;;;5091049;28;20028;-82
2022/07/17 07:40:51;;;;;;;8.02;5.22;;;26.40;92.60;;;;;;5087375;28;20019;-80
2022/07/17 07:43:17;;;;;;;6.50;5.13;;;26.50;92.40;;;;;;5091702;28;20020;-81
2022/07/17 07:45:43;;;;;;;8.90;5.18;;;26.60;92.00;;;;;;5091164;28;20032;-80
2022/07/17 07:48:09;;;;;;;7.35;5.70;;;26.80;91.70;;;;;;5092203;28;20035;-80
2022/07/17 07:50:35;;;;;;;9.38;5.82;;;26.90;91.20;;;;;;5079480;28;20036;-80
2022/07/17 07:53:01;;;;;;;12.43;5.13;;;27.00;90.70;;;;;;5088249;28;20185;-80
2022/07/17 07:55:27;;;;;;;6.60;4.70;;;27.20;90.80;;;;;;5088640;28;20048;-82
2022/07/17 07:58:04;;;;;;;9.93;4.97;;;27.30;89.90;;;;;;5088868;28;20103;-80
2022/07/17 08:00:30;;;;;;;6.20;5.10;;;27.40;89.40;;;;;;5085631;28;20036;-80
2022/07/17 08:02:56;;;;;;;7.88;5.00;;;27.50;89.60;;;;;;5089759;28;20032;-82
2022/07/17 08:05:22;;;;;;;6.70;4.45;;;27.70;89.40;;;;;;5087721;28;20035;-80
2022/07/17 08:07:48;;;;;;;8.68;4.40;;;27.80;87.40;;;;;;5092787;28;20058;-80
2022/07/17 08:10:14;;;;;;;5.93;4.28;;;27.90;86.40;;;;;;5090755;28;20021;-80
2022/07/17 08:12:40;;;;;;;5.47;3.95;;;28.00;85.90;;;;;;5094567;28;20038;-80
2022/07/17 08:15:06;;;;;;;6.72;4.30;;;28.20;86.00;;;;;;5094547;28;20473;-80
2022/07/17 08:17:32;;;;;;;9.57;4.50;;;28.30;84.50;;;;;;5096679;28;20366;-79
2022/07/17 08:19:58;;;;;;;4.22;3.83;;;28.50;84.10;;;;;;5083308;28;20089;-79
2022/07/17 08:22:24;;;;;;;4.90;3.95;;;28.60;81.20;;;;;;5076673;28;20025;-80
2022/07/17 08:24:49;;;;;;;6.28;4.30;;;28.70;81.80;;;;;;5081792;28;20496;-81
2022/07/17 08:27:15;;;;;;;6.35;3.83;;;28.70;81.70;;;;;;5085601;28;20104;-79
2022/07/17 08:29:41;;;;;;;7.03;3.78;;;28.90;80.00;;;;;;5085800;28;20038;-79
2022/07/17 08:32:07;;;;;;;6.78;4.00;;;29.10;80.80;;;;;;5087877;28;20024;-79
2022/07/17 08:34:33;;;;;;;5.07;3.50;;;29.20;79.40;;;;;;5086325;28;20400;-79
2022/07/17 08:36:59;;;;;;;4.32;3.92;;;29.30;77.20;;;;;;5093247;28;20477;-80
2022/07/17 08:39:25;;;;;;;5.03;3.50;;;29.40;77.70;;;;;;5088408;28;20067;-80
2022/07/17 08:41:51;;;;;;;7.43;3.55;;;29.50;78.00;;;;;;5095596;28;20048;-80
2022/07/17 08:44:17;;;;;;;8.45;3.78;;;29.60;76.40;;;;;;5090895;28;20095;-80
2022/07/17 08:46:43;;;;;;;4.38;3.60;;;29.70;76.10;;;;;;5096905;28;20051;-79
2022/07/17 08:49:11;;;;;;;6.72;3.33;;;29.90;75.10;;;;;;5088331;28;20025;-80
2022/07/17 08:51:37;;;;;;;7.07;3.35;;;30.00;73.40;;;;;;5081959;28;20025;-81
2022/07/17 08:54:03;;;;;;;7.85;4.15;;;30.10;74.20;;;;;;5084580;28;20060;-80
2022/07/17 08:56:29;;;;;;;6.03;3.17;;;30.20;72.10;;;;;;5087826;28;20017;-77
2022/07/17 08:58:55;;;;;;;5.00;3.72;;;30.30;71.30;;;;;;5085653;28;20028;-80
2022/07/17 09:01:23;;;;;;;5.03;3.30;;;30.40;70.40;;;;;;5091898;28;20031;-81
2022/07/17 09:04:05;;;;;;;5.28;3.55;;;30.60;71.50;;;;;;5089653;28;20503;-78
2022/07/17 09:06:32;;;;;;;4.47;3.13;;;30.70;71.00;;;;;;5091812;28;20031;-80
2022/07/17 09:09:10;;;;;;;6.35;3.22;;;30.80;69.60;;;;;;5094255;28;20067;-81
2022/07/17 09:11:47;;;;;;;7.78;3.30;;;30.80;69.70;;;;;;5095369;28;20069;-81
2022/07/17 09:14:14;;;;;;;4.35;2.78;;;31.00;70.90;;;;;;5087029;28;20037;-81
2022/07/17 09:16:57;;;;;;;5.00;3.35;;;31.10;70.60;;;;;;5098036;28;20020;-80
2022/07/17 09:19:24;;;;;;;5.10;2.85;;;31.30;69.00;;;;;;5089702;28;20043;-80
2022/07/17 09:21:51;;;;;;;5.65;3.33;;;31.40;65.70;;;;;;5084834;28;20103;-81
2022/07/17 09:24:17;;;;;;;6.68;3.33;;;31.40;65.10;;;;;;5080325;28;20017;-80
2022/07/17 09:26:45;;;;;;;5.70;3.22;;;31.50;66.10;;;;;;5096063;28;20515;-81
2022/07/17 09:29:12;;;;;;;10.25;3.00;;;31.60;66.50;;;;;;5081928;28;20024;-82
2022/07/17 09:31:38;;;;;;;8.95;3.03;;;31.60;66.20;;;;;;5087896;28;20016;-81
2022/07/17 09:34:04;;;;;;;7.22;2.88;;;31.70;65.40;;;;;;5086620;28;20408;-79
2022/07/17 09:36:30;;;;;;;7.13;3.03;;;31.80;65.40;;;;;;5088857;28;20016;-81
2022/07/17 09:38:58;;;;;;;3.97;2.90;;;31.80;61.80;;;;;;5089345;28;20028;-81
2022/07/17 09:41:25;;;;;;;5.68;3.83;;;31.80;62.00;;;;;;5091042;28;20020;-79
2022/07/17 09:43:57;;;;;;;4.50;2.67;;;31.80;62.90;;;;;;5092815;28;20031;-80
2022/07/17 09:46:27;;;;;;;4.78;2.97;;;32.00;63.30;;;;;;5093975;28;20414;-81
2022/07/17 09:48:56;;;;;;;6.22;3.10;;;32.00;63.00;;;;;;5088440;28;20029;-80
2022/07/17 09:51:27;;;;;;;4.57;3.00;;;32.10;63.60;;;;;;5084850;28;20032;-81
2022/07/17 09:53:56;;;;;;;6.35;3.42;;;32.20;61.70;;;;;;5082976;28;20074;-80
2022/07/17 09:56:24;;;;;;;8.35;2.83;;;32.30;62.10;;;;;;5088077;28;20384;-81
2022/07/17 09:59:09;;;;;;;5.72;3.40;;;32.40;59.80;;;;;;5084619;28;20440;-80
2022/07/17 10:01:36;;;;;;;8.40;2.92;;;32.40;58.60;;;;;;5088969;28;20016;-82
2022/07/17 10:04:03;;;;;;;7.78;3.47;;;32.40;61.30;;;;;;5089771;28;20084;-80
2022/07/17 10:06:29;;;;;;;10.68;2.97;;;32.60;60.60;;;;;;5092376;28;20017;-80
2022/07/17 10:08:55;;;;;;;5.22;2.67;;;32.60;59.40;;;;;;5093084;28;20020;-82
2022/07/17 10:11:23;;;;;;;5.00;2.53;;;32.60;59.30;;;;;;5095994;28;20032;-81
2022/07/17 10:13:51;;;;;;;8.40;2.83;;;32.70;58.70;;;;;;5093962;28;20020;-83
2022/07/17 10:16:29;;;;;;;4.32;2.53;;;32.70;58.90;;;;;;5096447;28;20027;-81
2022/07/17 10:18:57;;;;;;;5.18;3.38;;;32.80;58.20;;;;;;5078923;28;20016;-81
2022/07/17 10:21:24;;;;;;;3.90;2.72;;;32.80;57.40;;;;;;5078024;28;20024;-83
2022/07/17 10:23:53;;;;;;;4.57;3.00;;;32.90;59.80;;;;;;5092270;28;20024;-80
2022/07/17 10:26:38;;;;;;;9.30;3.28;;;33.00;58.00;;;;;;5081662;28;20052;-80
2022/07/17 10:29:08;;;;;;;4.82;3.20;;;33.10;58.10;;;;;;5082730;28;20070;-82
2022/07/17 10:31:34;;;;;;;3.35;2.63;;;33.20;58.00;;;;;;5085499;28;20035;-83
2022/07/17 10:34:03;;;;;;;5.03;3.08;;;33.30;56.00;;;;;;5084919;28;20013;-82
2022/07/17 10:36:34;;;;;;;7.82;2.83;;;33.30;56.80;;;;;;5088772;28;20492;-81
2022/07/17 10:39:14;;;;;;;4.25;2.30;;;33.20;56.00;;;;;;5088907;28;20012;-82
2022/07/17 10:41:41;;;;;;;4.22;2.63;;;33.30;56.40;;;;;;5097588;28;20388;-82
2022/07/17 10:44:08;;;;;;;3.67;2.97;;;33.30;57.20;;;;;;5089228;28;20021;-82
2022/07/17 10:46:34;;;;;;;5.13;3.13;;;33.40;55.60;;;;;;5082437;28;20024;-82
2022/07/17 10:49:05;;;;;;;7.20;3.30;;;33.30;55.90;;;;;;5085933;28;20013;-82
2022/07/17 10:51:32;;;;;;;4.85;2.65;;;33.50;57.20;;;;;;5080450;28;20107;-82
2022/07/17 10:53:59;;;;;;;8.38;2.78;;;33.50;56.90;;;;;;5080727;28;20040;-82
2022/07/17 10:56:26;;;;;;;4.80;2.83;;;33.60;56.70;;;;;;5086473;28;20021;-83
2022/07/17 10:58:52;;;;;;;4.97;2.35;;;33.60;55.30;;;;;;5084915;28;20528;-82
2022/07/17 11:01:21;;;;;;;5.07;2.58;;;33.80;56.30;;;;;;5096515;28;20012;-83
2022/07/17 11:03:56;;;;;;;3.42;2.75;;;33.90;56.30;;;;;;5094640;28;20417;-84
2022/07/17 11:06:24;;;;;;;3.67;2.63;;;34.10;55.90;;;;;;5091068;28;20381;-84
2022/07/17 11:08:51;;;;;;;4.40;2.70;;;34.00;55.60;;;;;;5086724;28;20020;-81
2022/07/17 11:11:20;;;;;;;6.88;2.70;;;34.00;55.60;;;;;;5095487;28;20091;-83
2022/07/17 11:13:46;;;;;;;6.75;2.50;;;34.00;56.00;;;;;;5093936;28;20024;-83
2022/07/17 11:16:22;;;;;;;4.28;2.53;;;34.10;55.20;;;;;;5078947;28;20028;-84
2022/07/17 11:18:48;;;;;;;5.40;2.58;;;34.10;55.10;;;;;;5091999;28;20074;-83
2022/07/17 11:21:14;;;;;;;3.95;2.95;;;34.20;55.20;;;;;;5079505;28;20020;-81
2022/07/17 11:23:54;;;;;;;3.38;2.20;;;34.50;53.70;;;;;;5084995;28;20027;-82
2022/07/17 11:26:20;;;;;;;3.58;2.63;;;34.50;53.10;;;;;;5081878;28;20473;-80
2022/07/17 11:28:48;;;;;;;5.03;2.55;;;34.50;54.00;;;;;;5088221;28;20492;-81
2022/07/17 11:31:18;;;;;;;3.47;2.58;;;34.50;52.90;;;;;;5085459;28;20036;-82
2022/07/17 11:33:55;;;;;;;6.45;2.55;;;34.50;53.00;;;;;;5091992;28;20035;-82
2022/07/17 11:36:31;;;;;;;3.72;2.33;;;34.40;52.30;;;;;;5089645;28;20415;-81
2022/07/17 11:38:58;;;;;;;3.83;2.15;;;34.50;51.50;;;;;;5094726;28;20095;-82
2022/07/17 11:41:35;;;;;;;4.25;2.40;;;34.50;51.80;;;;;;5093520;28;20030;-83
2022/07/17 11:44:02;;;;;;;3.20;2.30;;;34.50;53.30;;;;;;5096283;28;20024;-83
2022/07/17 11:46:30;;;;;;;2.58;1.85;;;34.50;53.00;;;;;;5089896;28;20036;-81
2022/07/17 11:48:56;;;;;;;3.22;2.10;;;34.50;50.40;;;;;;5077733;28;20027;-81
2022/07/17 11:51:45;;;;;;;4.45;1.90;;;34.70;53.40;;;;;;5078764;28;20113;-81
2022/07/17 11:54:13;;;;;;;3.78;1.85;;;34.70;52.70;;;;;;5080782;28;20093;-83
2022/07/17 11:56:40;;;;;;;8.05;2.30;;;34.80;50.60;;;;;;5086725;28;20020;-83
2022/07/17 11:59:08;;;;;;;4.55;2.10;;;34.90;51.10;;;;;;5089954;28;20024;-83
2022/07/17 12:01:42;;;;;;;4.20;2.40;;;34.90;52.40;;;;;;5093328;28;20031;-82
2022/07/17 12:04:09;;;;;;;2.97;1.73;;;35.00;51.50;;;;;;5095681;28;20040;-83
2022/07/17 12:06:35;;;;;;;3.05;2.10;;;35.00;49.70;;;;;;5084668;28;20052;-82
2022/07/17 12:09:01;;;;;;;2.50;1.65;;;35.00;51.30;;;;;;5097175;28;20031;-82
2022/07/17 12:11:27;;;;;;;4.70;2.35;;;35.30;49.80;;;;;;5096145;28;20169;-83
2022/07/17 12:13:53;;;;;;;2.58;1.70;;;35.20;49.20;;;;;;5096918;28;20027;-83
2022/07/17 12:16:22;;;;;;;2.40;1.70;;;35.20;47.50;;;;;;5098995;28;20028;-83
2022/07/17 12:18:55;;;;;;;3.45;1.50;;;35.20;48.30;;;;;;5094437;28;20016;-83
2022/07/17 12:21:21;;;;;;;2.38;1.50;;;35.30;47.60;;;;;;5081852;28;20024;-82
2022/07/17 12:23:58;;;;;;;2.70;1.75;;;35.20;47.20;;;;;;5084042;28;20048;-83
2022/07/17 12:26:24;;;;;;;4.43;1.63;;;35.40;49.60;;;;;;5084591;28;20481;-82
2022/07/17 12:28:50;;;;;;;3.80;1.73;;;35.50;48.60;;;;;;5086874;28;20086;-80
2022/07/17 12:31:16;;;;;;;2.45;1.60;;;35.50;46.70;;;;;;5088063;28;20024;-81
2022/07/17 12:33:42;;;;;;;7.32;1.90;;;35.70;49.30;;;;;;5101776;28;20023;-83
2022/07/17 12:36:08;;;;;;;3.13;1.55;;;35.80;49.30;;;;;;5089657;28;20533;-83
2022/07/17 12:38:35;;;;;;;2.15;1.27;;;35.80;50.40;;;;;;5095481;28;20020;-83
2022/07/17 12:41:00;;;;;;;3.53;1.70;;;35.80;49.80;;;;;;5091542;28;20026;-83
2022/07/17 12:43:26;;;;;;;2.35;1.42;;;35.80;47.60;;;;;;5095685;28;20411;-83